Time;durP1;ratioP1;P1;durP2;ratioP2;P2;SDS_P1;SDS_P2;PMS_P1;PMS_P2;Temp;Humidity;BMP_temperature;BMP_pressure;BME280_temperature;BME280_humidity;BME280_pressure;Samples;Min_cycle;Max_cycle;Signal;HPM_P1;HPM_P2
2023/11/09 00:01:03;;;;;;;5.65;2.40;;;;;;;;;;5105979;28;20031;-46
2023/11/09 00:03:30;;;;;;;5.75;2.45;;;;;;;;;;5105836;28;20031;-53
2023/11/09 00:05:57;;;;;;;4.80;2.40;;;;;;;;;;5105670;28;20158;-50
2023/11/09 00:08:24;;;;;;;5.38;2.90;;;;;;;;;;5105681;28;20020;-48
2023/11/09 00:10:51;;;;;;;6.80;2.30;;;;;;;;;;5105660;28;20043;-48
2023/11/09 00:13:18;;;;;;;4.90;2.15;;;;;;;;;;5105507;28;20319;-48
2023/11/09 00:15:45;;;;;;;6.63;2.35;;;;;;;;;;5105404;28;20039;-49
2023/11/09 00:18:12;;;;;;;9.13;2.22;;;;;;;;;;5105629;28;20309;-47
2023/11/09 00:20:41;;;;;;;5.10;2.10;;;;;;;;;;5105348;28;20297;-43
2023/11/09 00:23:08;;;;;;;5.82;2.10;;;;;;;;;;5105364;28;20035;-46
2023/11/09 00:25:35;;;;;;;6.18;2.15;;;;;;;;;;5105578;28;20036;-51
2023/11/09 00:28:03;;;;;;;8.10;2.53;;;;;;;;;;5105246;28;20020;-48
2023/11/09 00:30:29;;;;;;;7.00;2.35;;;;;;;;;;5105237;28;20266;-47
2023/11/09 00:32:56;;;;;;;7.30;2.35;;;;;;;;;;5105062;28;20039;-47
2023/11/09 00:35:23;;;;;;;5.70;2.40;;;;;;;;;;5105472;28;20032;-44
2023/11/09 00:37:50;;;;;;;5.43;2.55;;;;;;;;;;5105130;28;20095;-51
2023/11/09 00:40:16;;;;;;;9.32;2.75;;;;;;;;;;5105304;28;20038;-48
2023/11/09 00:42:43;;;;;;;5.40;2.45;;;;;;;;;;5105031;28;20054;-47
2023/11/09 00:45:10;;;;;;;5.53;2.47;;;;;;;;;;5105382;28;20024;-46
2023/11/09 00:47:36;;;;;;;9.20;2.30;;;;;;;;;;5104811;28;20302;-52
2023/11/09 00:50:05;;;;;;;3.30;2.40;;;;;;;;;;5104852;28;20240;-44
2023/11/09 00:52:31;;;;;;;5.82;2.17;;;;;;;;;;5105119;28;20385;-45
2023/11/09 00:54:58;;;;;;;5.25;2.38;;;;;;;;;;5105137;28;20032;-50
2023/11/09 00:57:26;;;;;;;6.28;2.22;;;;;;;;;;5104750;28;20028;-51
2023/11/09 00:59:52;;;;;;;10.18;2.72;;;;;;;;;;5104433;28;20363;-47
2023/11/09 01:02:19;;;;;;;7.60;2.58;;;;;;;;;;5104503;28;20027;-48
2023/11/09 01:04:46;;;;;;;9.68;5.05;;;;;;;;;;5104405;28;20024;-52
2023/11/09 01:07:13;;;;;;;9.98;6.07;;;;;;;;;;5104635;28;20055;-46
2023/11/09 01:09:40;;;;;;;6.90;4.70;;;;;;;;;;5104901;28;20032;-54
2023/11/09 01:12:07;;;;;;;10.10;4.20;;;;;;;;;;5104454;28;20028;-49
2023/11/09 01:14:33;;;;;;;8.30;3.47;;;;;;;;;;5104824;28;20075;-52
2023/11/09 01:17:00;;;;;;;8.80;3.67;;;;;;;;;;5104501;28;20035;-50
2023/11/09 01:19:27;;;;;;;11.88;3.05;;;;;;;;;;5104590;28;20035;-47
2023/11/09 01:21:53;;;;;;;4.88;2.67;;;;;;;;;;5104319;28;20031;-48
2023/11/09 01:24:20;;;;;;;6.97;2.70;;;;;;;;;;5104408;28;20020;-53
2023/11/09 01:26:47;;;;;;;6.43;3.10;;;;;;;;;;5104311;28;20037;-51
2023/11/09 01:29:13;;;;;;;7.25;2.97;;;;;;;;;;5104457;28;20059;-52
2023/11/09 01:31:40;;;;;;;7.07;2.72;;;;;;;;;;5104016;28;20028;-51
2023/11/09 01:34:09;;;;;;;5.60;2.50;;;;;;;;;;5104415;28;20020;-49
2023/11/09 01:36:37;;;;;;;10.30;2.72;;;;;;;;;;5104196;28;20042;-48
2023/11/09 01:39:04;;;;;;;5.78;2.17;;;;;;;;;;5104023;28;20307;-49
2023/11/09 01:41:30;;;;;;;7.40;2.58;;;;;;;;;;5104068;28;20316;-46
2023/11/09 01:43:58;;;;;;;4.85;2.20;;;;;;;;;;5104212;28;20308;-49
2023/11/09 01:46:27;;;;;;;6.32;2.15;;;;;;;;;;5103899;28;20032;-51
2023/11/09 01:48:55;;;;;;;6.15;2.30;;;;;;;;;;5103998;28;20075;-48
2023/11/09 01:51:21;;;;;;;6.82;2.53;;;;;;;;;;5103837;28;20056;-52
2023/11/09 01:53:48;;;;;;;17.00;2.90;;;;;;;;;;5100207;28;20074;-50
2023/11/09 01:56:15;;;;;;;6.97;2.60;;;;;;;;;;5109824;28;20023;-54
2023/11/09 01:58:43;;;;;;;6.82;2.53;;;;;;;;;;5093260;28;20087;-51
2023/11/09 02:01:11;;;;;;;7.15;2.50;;;;;;;;;;5103718;28;20129;-50
2023/11/09 02:03:38;;;;;;;3.90;2.38;;;;;;;;;;5101521;28;20142;-52
2023/11/09 02:06:05;;;;;;;5.22;2.20;;;;;;;;;;5098657;28;20047;-57
2023/11/09 02:08:33;;;;;;;6.03;2.60;;;;;;;;;;5097193;28;20020;-54
2023/11/09 02:11:01;;;;;;;6.45;2.60;;;;;;;;;;5095430;28;20350;-48
2023/11/09 02:13:27;;;;;;;4.50;2.42;;;;;;;;;;5087934;28;20036;-44
2023/11/09 02:15:55;;;;;;;11.40;2.40;;;;;;;;;;5095124;28;20103;-49
2023/11/09 02:18:22;;;;;;;9.90;2.65;;;;;;;;;;5102347;28;20319;-53
2023/11/09 02:20:52;;;;;;;6.30;2.40;;;;;;;;;;5096374;28;20036;-56
2023/11/09 02:23:29;;;;;;;18.50;3.22;;;;;;;;;;5087184;28;20031;-51
2023/11/09 02:25:56;;;;;;;9.20;2.63;;;;;;;;;;5087390;28;20302;-46
2023/11/09 02:28:23;;;;;;;9.57;2.35;;;;;;;;;;5086976;28;20025;-47
2023/11/09 02:30:50;;;;;;;10.65;2.33;;;;;;;;;;5089334;28;20558;-53
2023/11/09 02:33:16;;;;;;;6.05;2.08;;;;;;;;;;5087240;28;20021;-51
2023/11/09 02:35:44;;;;;;;6.55;2.22;;;;;;;;;;5090117;28;20103;-52
2023/11/09 02:38:11;;;;;;;5.97;2.25;;;;;;;;;;5100856;28;20024;-51
2023/11/09 02:40:38;;;;;;;4.43;2.10;;;;;;;;;;5098580;28;20097;-51
2023/11/09 02:43:04;;;;;;;8.80;2.30;;;;;;;;;;5100841;28;20058;-56
2023/11/09 02:45:31;;;;;;;5.30;2.00;;;;;;;;;;5104119;28;20020;-52
2023/11/09 02:47:58;;;;;;;8.27;2.38;;;;;;;;;;5098375;28;20029;-49
2023/11/09 02:50:24;;;;;;;10.70;2.38;;;;;;;;;;5101033;28;20055;-51
2023/11/09 02:52:51;;;;;;;4.72;2.13;;;;;;;;;;5100373;28;20031;-52
2023/11/09 02:55:18;;;;;;;4.88;2.00;;;;;;;;;;5096529;28;20025;-50
2023/11/09 02:57:45;;;;;;;8.35;2.00;;;;;;;;;;5096621;28;20283;-56
2023/11/09 03:00:12;;;;;;;8.50;2.25;;;;;;;;;;5097670;28;20304;-51
2023/11/09 03:02:39;;;;;;;3.40;1.85;;;;;;;;;;5095414;28;20025;-51
2023/11/09 03:05:06;;;;;;;5.97;2.20;;;;;;;;;;5096727;28;20032;-50
2023/11/09 03:07:33;;;;;;;4.65;1.60;;;;;;;;;;5098362;28;20053;-45
2023/11/09 03:10:01;;;;;;;4.10;1.92;;;;;;;;;;5099247;28;20016;-50
2023/11/09 03:12:27;;;;;;;5.45;2.17;;;;;;;;;;5098931;28;20036;-52
2023/11/09 03:14:54;;;;;;;4.28;1.98;;;;;;;;;;5098245;28;20030;-52
2023/11/09 03:17:22;;;;;;;5.45;2.20;;;;;;;;;;5097863;28;20024;-49
2023/11/09 03:19:48;;;;;;;5.90;2.05;;;;;;;;;;5096035;28;20031;-50
2023/11/09 03:22:15;;;;;;;4.20;2.42;;;;;;;;;;5095465;28;20062;-46
2023/11/09 03:24:42;;;;;;;5.63;2.00;;;;;;;;;;5095877;28;20023;-41
2023/11/09 03:27:10;;;;;;;7.03;2.25;;;;;;;;;;5100969;28;20091;-46
2023/11/09 03:29:37;;;;;;;3.95;2.50;;;;;;;;;;5097221;28;20025;-42
2023/11/09 03:32:06;;;;;;;7.82;3.75;;;;;;;;;;5100657;28;20046;-41
2023/11/09 03:34:33;;;;;;;10.07;4.70;;;;;;;;;;5098986;28;20039;-43
2023/11/09 03:37:00;;;;;;;10.13;5.03;;;;;;;;;;5099989;28;20220;-43
2023/11/09 03:39:27;;;;;;;10.20;4.78;;;;;;;;;;5097757;28;20020;-46
2023/11/09 03:41:54;;;;;;;7.35;4.90;;;;;;;;;;5096904;28;20303;-43
2023/11/09 03:44:20;;;;;;;11.23;4.70;;;;;;;;;;5094804;28;20023;-45
2023/11/09 03:46:51;;;;;;;9.35;4.95;;;;;;;;;;5097434;28;20084;-48
2023/11/09 03:49:17;;;;;;;6.97;4.03;;;;;;;;;;5094434;28;20052;-44
2023/11/09 03:51:44;;;;;;;7.88;4.32;;;;;;;;;;5095811;28;20044;-46
2023/11/09 03:54:10;;;;;;;8.68;4.10;;;;;;;;;;5096290;28;20025;-46
2023/11/09 03:56:37;;;;;;;9.73;4.22;;;;;;;;;;5094421;28;20028;-41
2023/11/09 03:59:04;;;;;;;7.22;4.10;;;;;;;;;;5095843;28;20019;-47
2023/11/09 04:01:32;;;;;;;8.15;3.97;;;;;;;;;;5096188;28;20039;-43
2023/11/09 04:03:59;;;;;;;9.63;3.90;;;;;;;;;;5097145;28;20027;-50
2023/11/09 04:06:25;;;;;;;6.68;3.70;;;;;;;;;;5096868;28;20022;-47
2023/11/09 04:08:52;;;;;;;8.45;3.20;;;;;;;;;;5094615;28;20236;-44
2023/11/09 04:11:20;;;;;;;8.52;3.33;;;;;;;;;;5096122;28;20142;-47
2023/11/09 04:13:47;;;;;;;8.07;3.10;;;;;;;;;;5095257;28;20043;-47
2023/11/09 04:16:14;;;;;;;10.00;3.10;;;;;;;;;;5096728;28;20031;-44
2023/11/09 04:18:41;;;;;;;5.97;2.95;;;;;;;;;;5094354;28;20025;-45
2023/11/09 04:21:09;;;;;;;7.05;2.70;;;;;;;;;;5094499;28;20019;-42
2023/11/09 04:23:37;;;;;;;6.05;2.40;;;;;;;;;;5096080;28;20016;-46
2023/11/09 04:26:08;;;;;;;7.95;2.55;;;;;;;;;;5094449;28;20047;-43
2023/11/09 04:28:35;;;;;;;6.03;2.67;;;;;;;;;;5093707;28;20020;-43
2023/11/09 04:31:04;;;;;;;5.63;2.58;;;;;;;;;;5095600;28;20079;-42
2023/11/09 04:33:32;;;;;;;12.65;2.60;;;;;;;;;;5087695;28;20071;-42
2023/11/09 04:36:00;;;;;;;4.28;2.20;;;;;;;;;;5084715;28;20025;-46
2023/11/09 04:38:30;;;;;;;5.60;2.13;;;;;;;;;;5084979;28;20024;-42
2023/11/09 04:41:04;;;;;;;4.03;1.98;;;;;;;;;;5083736;28;20265;-43
2023/11/09 04:43:32;;;;;;;6.20;2.28;;;;;;;;;;5084998;28;20020;-47
2023/11/09 04:46:05;;;;;;;7.13;2.30;;;;;;;;;;5084650;28;20392;-42
2023/11/09 04:48:33;;;;;;;6.28;2.00;;;;;;;;;;5084598;28;20020;-45
2023/11/09 04:51:03;;;;;;;8.38;2.22;;;;;;;;;;5084468;28;20072;-42
2023/11/09 04:53:31;;;;;;;3.28;1.90;;;;;;;;;;5084615;28;20024;-49
2023/11/09 04:56:19;;;;;;;5.10;2.03;;;;;;;;;;5084407;28;20088;-43
2023/11/09 04:58:50;;;;;;;4.43;1.60;;;;;;;;;;5084831;28;20028;-42
2023/11/09 05:06:52;;;;;;;3.92;1.80;;;;;;;;;;5084407;28;20023;-48
2023/11/09 05:09:23;;;;;;;4.72;1.65;;;;;;;;;;5084574;28;20099;-46
2023/11/09 05:11:50;;;;;;;3.80;1.63;;;;;;;;;;5090840;28;20088;-47
2023/11/09 05:14:17;;;;;;;7.60;1.70;;;;;;;;;;5094060;28;20032;-46
2023/11/09 05:16:44;;;;;;;7.05;1.90;;;;;;;;;;5094960;28;20032;-43
2023/11/09 05:19:14;;;;;;;7.85;1.55;;;;;;;;;;5093354;28;20020;-46
2023/11/09 05:21:41;;;;;;;3.67;1.38;;;;;;;;;;5093265;28;20032;-50
2023/11/09 05:24:08;;;;;;;8.57;1.83;;;;;;;;;;5095022;28;20081;-49
2023/11/09 05:26:36;;;;;;;6.00;2.08;;;;;;;;;;5093537;28;20016;-44
2023/11/09 05:29:04;;;;;;;4.68;1.88;;;;;;;;;;5093042;28;20027;-43
2023/11/09 05:31:34;;;;;;;6.72;2.28;;;;;;;;;;5094404;28;20026;-49
2023/11/09 05:34:01;;;;;;;5.03;1.65;;;;;;;;;;5094481;28;20017;-43
2023/11/09 05:36:28;;;;;;;5.50;1.75;;;;;;;;;;5092574;28;20103;-43
2023/11/09 05:38:55;;;;;;;3.78;1.60;;;;;;;;;;5095049;28;20075;-46
2023/11/09 05:41:22;;;;;;;7.45;1.80;;;;;;;;;;5094643;28;20032;-47
2023/11/09 05:43:48;;;;;;;3.10;1.63;;;;;;;;;;5092432;28;20212;-51
2023/11/09 05:46:15;;;;;;;4.78;1.60;;;;;;;;;;5093760;28;20203;-48
2023/11/09 05:48:42;;;;;;;2.83;1.50;;;;;;;;;;5093230;28;20171;-43
2023/11/09 05:51:08;;;;;;;3.80;1.50;;;;;;;;;;5092162;28;20036;-41
2023/11/09 05:53:35;;;;;;;3.22;1.70;;;;;;;;;;5093775;28;20016;-44
2023/11/09 05:56:02;;;;;;;2.33;1.40;;;;;;;;;;5094150;28;20383;-45
2023/11/09 05:58:29;;;;;;;3.05;1.60;;;;;;;;;;5092545;28;20305;-43
2023/11/09 06:00:56;;;;;;;4.78;1.85;;;;;;;;;;5093391;28;20185;-44
2023/11/09 06:03:22;;;;;;;3.92;1.45;;;;;;;;;;5094275;28;20174;-44
2023/11/09 06:05:50;;;;;;;5.40;2.13;;;;;;;;;;5092436;28;20024;-49
2023/11/09 06:08:18;;;;;;;2.92;1.80;;;;;;;;;;5093333;28;20031;-45
2023/11/09 06:10:47;;;;;;;4.63;1.70;;;;;;;;;;5094314;28;20023;-50
2023/11/09 06:13:14;;;;;;;3.58;1.73;;;;;;;;;;5093006;28;20066;-47
2023/11/09 06:15:41;;;;;;;3.15;1.75;;;;;;;;;;5092788;28;20119;-45
2023/11/09 06:18:11;;;;;;;5.90;1.70;;;;;;;;;;5094224;28;20051;-47
2023/11/09 06:20:38;;;;;;;3.58;1.75;;;;;;;;;;5094238;28;20040;-43
2023/11/09 06:23:05;;;;;;;3.80;1.67;;;;;;;;;;5097311;28;20312;-43
2023/11/09 06:25:31;;;;;;;3.25;1.60;;;;;;;;;;5093965;28;20091;-45
2023/11/09 06:27:58;;;;;;;3.65;1.80;;;;;;;;;;5093439;28;20330;-42
2023/11/09 06:30:27;;;;;;;3.65;1.70;;;;;;;;;;5092078;28;20037;-42
2023/11/09 06:32:54;;;;;;;8.02;2.00;;;;;;;;;;5093487;28;20254;-44
2023/11/09 06:35:21;;;;;;;3.75;1.60;;;;;;;;;;5093588;28;20032;-50
2023/11/09 06:37:48;;;;;;;3.30;1.52;;;;;;;;;;5092049;28;20081;-42
2023/11/09 06:40:16;;;;;;;4.80;1.63;;;;;;;;;;5093656;28;20028;-43
2023/11/09 06:42:50;;;;;;;2.92;1.60;;;;;;;;;;5093977;28;20031;-41
2023/11/09 06:45:17;;;;;;;4.43;1.70;;;;;;;;;;5093349;28;20039;-42
2023/11/09 06:47:45;;;;;;;3.33;1.58;;;;;;;;;;5092089;28;20039;-43
2023/11/09 06:50:12;;;;;;;3.97;1.63;;;;;;;;;;5092261;28;20065;-47
2023/11/09 06:52:39;;;;;;;4.25;1.60;;;;;;;;;;5092584;28;20044;-45
2023/11/09 06:55:07;;;;;;;3.53;1.60;;;;;;;;;;5094392;28;20056;-53
2023/11/09 06:57:35;;;;;;;3.38;1.63;;;;;;;;;;5092529;28;20016;-47
2023/11/09 07:00:05;;;;;;;4.32;1.65;;;;;;;;;;5092497;28;20296;-43
2023/11/09 07:02:32;;;;;;;3.08;1.70;;;;;;;;;;5097069;28;20067;-46
2023/11/09 07:04:59;;;;;;;4.25;1.70;;;;;;;;;;5098171;28;20040;-44
2023/11/09 07:07:27;;;;;;;9.10;1.80;;;;;;;;;;5095305;28;20316;-46
2023/11/09 07:09:54;;;;;;;5.90;1.92;;;;;;;;;;5097177;28;20378;-49
2023/11/09 07:12:20;;;;;;;5.00;1.67;;;;;;;;;;5096801;28;20016;-43
2023/11/09 07:14:47;;;;;;;2.70;1.60;;;;;;;;;;5095516;28;20291;-44
2023/11/09 07:17:14;;;;;;;2.15;1.40;;;;;;;;;;5096659;28;20053;-46
2023/11/09 07:19:43;;;;;;;2.45;1.60;;;;;;;;;;5097047;28;20021;-42
2023/11/09 07:22:10;;;;;;;3.95;1.63;;;;;;;;;;5095060;28;20020;-53
2023/11/09 07:24:39;;;;;;;3.55;1.80;;;;;;;;;;5096512;28;20247;-42
2023/11/09 07:27:12;;;;;;;3.03;1.70;;;;;;;;;;5097117;28;20016;-44
2023/11/09 07:29:42;;;;;;;3.40;1.92;;;;;;;;;;5096596;28;20016;-54
2023/11/09 07:32:09;;;;;;;4.38;1.90;;;;;;;;;;5094842;28;20036;-50
2023/11/09 07:34:37;;;;;;;4.82;1.70;;;;;;;;;;5096501;28;20169;-46
2023/11/09 07:37:04;;;;;;;2.47;1.60;;;;;;;;;;5096918;28;20034;-46
2023/11/09 07:39:32;;;;;;;2.90;1.67;;;;;;;;;;5106506;28;20234;-50
2023/11/09 07:41:59;;;;;;;3.45;1.60;;;;;;;;;;5106335;28;20047;-46
2023/11/09 07:44:27;;;;;;;5.22;1.73;;;;;;;;;;5106805;28;20027;-53
2023/11/09 07:46:54;;;;;;;3.95;1.67;;;;;;;;;;5106195;28;20316;-43
2023/11/09 07:49:21;;;;;;;3.40;1.50;;;;;;;;;;5106067;28;20067;-50
2023/11/09 07:51:48;;;;;;;3.63;1.67;;;;;;;;;;5106028;28;20035;-49
2023/11/09 07:54:17;;;;;;;3.45;1.70;;;;;;;;;;5106267;28;20031;-47
2023/11/09 07:56:44;;;;;;;6.20;1.80;;;;;;;;;;5105983;28;20122;-49
2023/11/09 07:59:10;;;;;;;3.20;1.65;;;;;;;;;;5105764;28;20065;-45
2023/11/09 08:01:37;;;;;;;3.10;1.30;;;;;;;;;;5106030;28;20262;-45
2023/11/09 08:04:05;;;;;;;3.08;1.70;;;;;;;;;;5099381;28;20181;-51
2023/11/09 08:06:32;;;;;;;3.13;1.60;;;;;;;;;;5093714;28;20083;-50
2023/11/09 08:08:59;;;;;;;5.32;1.65;;;;;;;;;;5085702;28;20028;-42
2023/11/09 08:11:26;;;;;;;4.43;1.88;;;;;;;;;;5085719;28;20316;-43
2023/11/09 08:13:53;;;;;;;6.72;1.73;;;;;;;;;;5085360;28;20024;-48
2023/11/09 08:16:20;;;;;;;3.40;1.73;;;;;;;;;;5085256;28;20036;-46
2023/11/09 08:18:46;;;;;;;4.25;1.60;;;;;;;;;;5085484;28;20091;-48
2023/11/09 08:21:13;;;;;;;5.03;1.70;;;;;;;;;;5085076;28;20032;-42
2023/11/09 08:23:41;;;;;;;5.82;1.70;;;;;;;;;;5085376;28;20318;-52
2023/11/09 08:26:10;;;;;;;3.10;1.60;;;;;;;;;;5085371;28;20028;-47
2023/11/09 08:28:37;;;;;;;4.22;1.80;;;;;;;;;;5085120;28;20017;-48
2023/11/09 08:31:08;;;;;;;2.88;1.65;;;;;;;;;;5085002;28;20095;-49
2023/11/09 08:33:35;;;;;;;3.55;1.67;;;;;;;;;;5085059;28;20083;-49
2023/11/09 08:36:04;;;;;;;2.50;1.42;;;;;;;;;;5084902;28;20031;-44
2023/11/09 08:38:34;;;;;;;3.13;1.90;;;;;;;;;;5084954;28;20362;-45
2023/11/09 08:41:01;;;;;;;4.38;1.75;;;;;;;;;;5084813;28;20029;-45
2023/11/09 08:43:29;;;;;;;4.53;1.70;;;;;;;;;;5084919;28;20238;-45
2023/11/09 08:45:55;;;;;;;4.22;1.73;;;;;;;;;;5085040;28;20037;-50
2023/11/09 08:48:22;;;;;;;3.60;1.98;;;;;;;;;;5084626;28;20020;-48
2023/11/09 08:50:49;;;;;;;4.57;1.77;;;;;;;;;;5084483;28;20060;-44
2023/11/09 08:53:17;;;;;;;4.93;1.98;;;;;;;;;;5084872;28;20051;-47
2023/11/09 08:55:44;;;;;;;4.43;1.73;;;;;;;;;;5084678;28;20047;-47
2023/11/09 08:58:11;;;;;;;3.75;1.70;;;;;;;;;;5084556;28;20032;-45
2023/11/09 09:00:37;;;;;;;6.13;1.90;;;;;;;;;;5084404;28;20071;-46
2023/11/09 09:03:05;;;;;;;6.40;2.10;;;;;;;;;;5084383;28;20020;-48
2023/11/09 09:05:32;;;;;;;5.30;1.80;;;;;;;;;;5096652;28;20035;-49
2023/11/09 09:08:01;;;;;;;4.18;1.65;;;;;;;;;;5104606;28;20274;-44
2023/11/09 09:10:29;;;;;;;2.92;1.80;;;;;;;;;;5104579;28;20366;-46
2023/11/09 09:13:02;;;;;;;8.02;1.92;;;;;;;;;;5104539;28;20024;-47
2023/11/09 09:15:28;;;;;;;3.30;1.60;;;;;;;;;;5104547;28;20043;-45
2023/11/09 09:17:56;;;;;;;5.18;1.63;;;;;;;;;;5104327;28;20192;-45
2023/11/09 09:20:23;;;;;;;3.33;1.52;;;;;;;;;;5104357;28;20098;-44
2023/11/09 09:22:55;;;;;;;4.22;1.70;;;;;;;;;;5104435;28;20051;-50
2023/11/09 09:25:23;;;;;;;4.32;1.55;;;;;;;;;;5104221;28;20031;-50
2023/11/09 09:27:52;;;;;;;3.75;1.92;;;;;;;;;;5103876;28;20026;-47
2023/11/09 09:30:21;;;;;;;2.63;1.90;;;;;;;;;;5104266;28;20039;-42
2023/11/09 09:32:51;;;;;;;2.72;1.80;;;;;;;;;;5104166;28;20303;-45
2023/11/09 09:35:25;;;;;;;6.40;1.55;;;;;;;;;;5104255;28;20050;-50
2023/11/09 09:37:52;;;;;;;7.45;1.70;;;;;;;;;;5104199;28;20043;-44
2023/11/09 09:40:25;;;;;;;4.70;1.85;;;;;;;;;;5104034;28;20219;-49
2023/11/09 09:42:52;;;;;;;4.15;1.98;;;;;;;;;;5104440;28;20231;-53
2023/11/09 09:45:21;;;;;;;2.58;1.90;;;;;;;;;;5104268;28;20118;-48
2023/11/09 09:47:49;;;;;;;2.75;1.77;;;;;;;;;;5104067;28;20036;-50
2023/11/09 09:50:22;;;;;;;5.13;1.75;;;;;;;;;;5104029;28;20048;-50
2023/11/09 09:52:51;;;;;;;4.95;1.70;;;;;;;;;;5103888;28;20085;-44
2023/11/09 09:55:19;;;;;;;4.38;1.80;;;;;;;;;;5104816;28;20034;-48
2023/11/09 09:57:46;;;;;;;3.17;1.70;;;;;;;;;;5104042;28;20216;-41
2023/11/09 10:00:23;;;;;;;3.85;1.67;;;;;;;;;;5104264;28;20071;-52
2023/11/09 10:03:08;;;;;;;3.22;1.63;;;;;;;;;;5103936;28;20069;-48
2023/11/09 10:05:36;;;;;;;5.13;1.90;;;;;;;;;;5103893;28;20211;-49
2023/11/09 10:08:07;;;;;;;3.80;1.70;;;;;;;;;;5103766;28;20227;-52
2023/11/09 10:10:41;;;;;;;3.92;1.90;;;;;;;;;;5103738;28;20032;-52
2023/11/09 10:13:18;;;;;;;2.90;1.90;;;;;;;;;;5103801;28;20059;-52
2023/11/09 10:15:45;;;;;;;3.13;1.83;;;;;;;;;;5103615;28;20032;-49
2023/11/09 10:18:12;;;;;;;4.72;2.00;;;;;;;;;;5103825;28;20186;-51
2023/11/09 10:20:42;;;;;;;3.92;2.33;;;;;;;;;;5103685;28;20036;-49
2023/11/09 10:23:11;;;;;;;4.90;2.08;;;;;;;;;;5103370;28;20185;-44
2023/11/09 10:25:38;;;;;;;4.38;2.17;;;;;;;;;;5103745;28;20343;-42
2023/11/09 10:28:07;;;;;;;4.30;1.80;;;;;;;;;;5103512;28;20032;-49
2023/11/09 10:30:42;;;;;;;2.60;1.90;;;;;;;;;;5103536;28;20050;-43
2023/11/09 10:33:10;;;;;;;4.80;1.98;;;;;;;;;;5103559;28;20020;-49
2023/11/09 10:35:38;;;;;;;4.97;2.08;;;;;;;;;;5103617;28;20035;-52
2023/11/09 10:38:08;;;;;;;2.65;1.60;;;;;;;;;;5103708;28;20083;-49
2023/11/09 10:40:35;;;;;;;3.67;2.10;;;;;;;;;;5107275;28;20032;-56
2023/11/09 10:43:04;;;;;;;4.10;2.05;;;;;;;;;;5107328;28;20028;-50
2023/11/09 10:45:30;;;;;;;2.53;1.80;;;;;;;;;;5107518;28;20027;-48
2023/11/09 10:48:00;;;;;;;6.38;2.20;;;;;;;;;;5107353;28;20346;-48
2023/11/09 10:50:28;;;;;;;5.45;2.30;;;;;;;;;;5107048;28;20056;-47
2023/11/09 10:52:56;;;;;;;5.55;2.38;;;;;;;;;;5107108;28;20208;-48
2023/11/09 10:55:23;;;;;;;8.35;2.33;;;;;;;;;;5107124;28;20028;-55
2023/11/09 10:57:50;;;;;;;5.13;2.30;;;;;;;;;;5107081;28;20319;-46
2023/11/09 11:00:42;;;;;;;6.63;2.63;;;;;;;;;;5106298;28;20342;-50
2023/11/09 11:03:11;;;;;;;10.10;2.80;;;;;;;;;;5101417;28;20036;-42
2023/11/09 11:05:42;;;;;;;7.50;2.83;;;;;;;;;;5106210;28;20032;-49
2023/11/09 11:08:15;;;;;;;5.85;3.17;;;;;;;;;;5097112;28;20218;-48
2023/11/09 11:10:52;;;;;;;6.47;2.97;;;;;;;;;;5095427;28;20336;-41
2023/11/09 11:13:19;;;;;;;9.95;3.60;;;;;;;;;;5095871;28;20300;-41
2023/11/09 11:15:48;;;;;;;10.00;3.72;;;;;;;;;;5092038;28;20028;-52
2023/11/09 11:18:15;;;;;;;13.15;4.30;;;;;;;;;;5087311;28;20036;-52
2023/11/09 11:20:45;;;;;;;19.02;5.18;;;;;;;;;;5087232;28;20028;-46
2023/11/09 11:23:15;;;;;;;26.42;5.65;;;;;;;;;;5087018;28;20339;-48
2023/11/09 11:25:50;;;;;;;25.75;5.95;;;;;;;;;;5087262;28;20024;-49
2023/11/09 11:28:18;;;;;;;19.92;5.28;;;;;;;;;;5087313;28;20037;-50
2023/11/09 11:30:45;;;;;;;22.75;5.68;;;;;;;;;;5099411;28;20023;-55
2023/11/09 11:33:16;;;;;;;25.60;5.80;;;;;;;;;;5096134;28;20024;-55
2023/11/09 11:35:48;;;;;;;26.75;5.70;;;;;;;;;;5096774;28;20050;-45
2023/11/09 11:38:15;;;;;;;20.27;4.95;;;;;;;;;;5095783;28;20221;-54
2023/11/09 11:40:43;;;;;;;18.98;4.93;;;;;;;;;;5094019;28;20327;-42
2023/11/09 11:43:11;;;;;;;13.82;4.32;;;;;;;;;;5093272;28;20077;-45
2023/11/09 11:45:39;;;;;;;17.48;4.55;;;;;;;;;;5094133;28;20339;-43
2023/11/09 11:48:12;;;;;;;16.08;4.55;;;;;;;;;;5104460;28;20052;-48
2023/11/09 11:50:42;;;;;;;11.73;4.68;;;;;;;;;;5098647;28;20047;-46
2023/11/09 11:53:12;;;;;;;11.40;4.15;;;;;;;;;;5094553;28;20028;-43
2023/11/09 11:56:10;;;;;;;13.13;5.00;;;;;;;;;;5094970;28;20024;-42
2023/11/09 11:58:48;;;;;;;13.43;4.20;;;;;;;;;;5096545;28;20185;-44
2023/11/09 12:01:18;;;;;;;9.63;4.00;;;;;;;;;;5098926;28;20061;-48
2023/11/09 12:03:47;;;;;;;8.32;3.92;;;;;;;;;;5098978;28;20016;-48
2023/11/09 12:06:14;;;;;;;7.60;3.50;;;;;;;;;;5094868;28;20185;-48
2023/11/09 12:08:42;;;;;;;7.55;3.40;;;;;;;;;;5094532;28;20031;-52
2023/11/09 12:11:09;;;;;;;9.40;3.08;;;;;;;;;;5097557;28;20043;-51
2023/11/09 12:13:37;;;;;;;6.05;3.05;;;;;;;;;;5100593;27;20063;-47
2023/11/09 12:16:03;;;;;;;6.85;3.33;;;;;;;;;;5096138;28;20047;-50
2023/11/09 12:18:30;;;;;;;8.98;3.60;;;;;;;;;;5094359;28;20052;-50
2023/11/09 12:20:56;;;;;;;5.50;3.53;;;;;;;;;;5097891;28;20083;-51
2023/11/09 12:23:25;;;;;;;7.72;2.92;;;;;;;;;;5097260;28;20304;-48
2023/11/09 12:25:54;;;;;;;7.40;3.25;;;;;;;;;;5093867;28;20031;-48
2023/11/09 12:28:22;;;;;;;8.20;2.80;;;;;;;;;;5105289;28;20012;-51
2023/11/09 12:30:49;;;;;;;7.35;3.10;;;;;;;;;;5104605;28;20235;-50
2023/11/09 12:33:17;;;;;;;5.03;2.80;;;;;;;;;;5105375;28;20054;-53
2023/11/09 12:35:59;;;;;;;4.40;2.53;;;;;;;;;;5105431;28;20024;-50
2023/11/09 12:38:26;;;;;;;3.95;2.72;;;;;;;;;;5104548;28;20203;-48
2023/11/09 12:40:52;;;;;;;6.38;3.00;;;;;;;;;;5104657;28;20044;-48
2023/11/09 12:43:19;;;;;;;3.88;2.58;;;;;;;;;;5103246;28;20011;-44
2023/11/09 12:46:02;;;;;;;6.32;2.45;;;;;;;;;;5104998;28;20031;-43
2023/11/09 12:48:43;;;;;;;8.32;2.58;;;;;;;;;;5103490;28;20044;-44
2023/11/09 12:51:11;;;;;;;5.38;2.58;;;;;;;;;;5103973;28;20035;-44
2023/11/09 12:53:38;;;;;;;3.53;2.40;;;;;;;;;;5103163;28;20097;-46
2023/11/09 12:56:05;;;;;;;4.78;2.50;;;;;;;;;;5103323;28;20305;-47
2023/11/09 12:58:35;;;;;;;4.25;2.20;;;;;;;;;;5104232;28;20023;-43
2023/11/09 13:01:03;;;;;;;6.40;2.50;;;;;;;;;;5103164;28;20064;-44
2023/11/09 13:03:31;;;;;;;5.95;2.45;;;;;;;;;;5104177;28;20024;-44
2023/11/09 13:06:08;;;;;;;13.48;2.47;;;;;;;;;;5104068;28;20030;-52
2023/11/09 13:08:35;;;;;;;5.30;2.30;;;;;;;;;;5104709;28;20316;-48
2023/11/09 13:11:02;;;;;;;2.70;2.03;;;;;;;;;;5104815;28;20264;-42
2023/11/09 13:13:35;;;;;;;3.72;2.33;;;;;;;;;;5104582;28;20028;-43
2023/11/09 13:16:12;;;;;;;7.15;2.28;;;;;;;;;;5104538;28;20119;-47
2023/11/09 13:18:39;;;;;;;6.78;2.42;;;;;;;;;;5104528;28;20027;-45
2023/11/09 13:21:15;;;;;;;3.80;2.15;;;;;;;;;;5104274;28;20051;-43
2023/11/09 13:23:43;;;;;;;5.50;2.50;;;;;;;;;;5104532;28;20027;-50
2023/11/09 13:26:11;;;;;;;3.08;2.30;;;;;;;;;;5104359;28;20077;-43
2023/11/09 13:28:38;;;;;;;4.18;2.50;;;;;;;;;;5104427;28;20369;-43
2023/11/09 13:31:17;;;;;;;4.10;2.72;;;;;;;;;;5104291;28;20028;-43
2023/11/09 13:33:45;;;;;;;5.40;2.67;;;;;;;;;;5104310;28;20060;-44
2023/11/09 13:36:15;;;;;;;4.15;2.40;;;;;;;;;;5104601;28;20028;-43
2023/11/09 13:41:21;;;;;;;5.18;2.90;;;;;;;;;;5103811;28;20031;-43
2023/11/09 13:44:06;;;;;;;3.03;2.42;;;;;;;;;;5104265;28;20038;-43
2023/11/09 13:46:42;;;;;;;4.20;2.92;;;;;;;;;;5104428;28;20198;-43
2023/11/09 13:51:52;;;;;;;5.65;2.65;;;;;;;;;;5104076;28;20046;-44
2023/11/09 13:54:26;;;;;;;4.10;2.78;;;;;;;;;;5104403;28;20049;-49
2023/11/09 13:57:40;;;;;;;2.65;2.42;;;;;;;;;;5104188;28;20338;-47
2023/11/09 13:59:43;;;;;;;6.43;2.58;;;;;;;;;;5103816;28;20071;-48
2023/11/09 14:02:16;;;;;;;7.10;2.88;;;;;;;;;;5103764;28;20083;-42
2023/11/09 14:04:47;;;;;;;5.35;2.63;;;;;;;;;;5104359;28;20033;-46
2023/11/09 14:07:16;;;;;;;2.78;2.22;;;;;;;;;;5103976;28;20024;-43
2023/11/09 14:09:43;;;;;;;6.20;2.33;;;;;;;;;;5104167;28;20040;-44
2023/11/09 14:12:24;;;;;;;8.35;2.90;;;;;;;;;;5104243;28;20076;-44
2023/11/09 14:14:51;;;;;;;4.55;2.40;;;;;;;;;;5108288;28;20292;-43
2023/11/09 14:17:18;;;;;;;3.55;2.58;;;;;;;;;;5107899;28;20094;-47
2023/11/09 14:19:54;;;;;;;3.22;2.63;;;;;;;;;;5108177;28;20089;-48
2023/11/09 14:22:22;;;;;;;4.95;2.42;;;;;;;;;;5107932;28;20361;-50
2023/11/09 14:24:53;;;;;;;5.63;2.30;;;;;;;;;;5108210;28;20212;-42
2023/11/09 14:27:23;;;;;;;4.07;2.50;;;;;;;;;;5107593;28;20042;-42
2023/11/09 14:29:50;;;;;;;3.35;2.40;;;;;;;;;;5108405;28;20304;-51
2023/11/09 14:32:21;;;;;;;4.63;2.70;;;;;;;;;;5107626;28;20042;-44
2023/11/09 14:34:48;;;;;;;5.53;2.60;;;;;;;;;;5107840;28;20070;-44
2023/11/09 14:37:16;;;;;;;2.85;2.40;;;;;;;;;;5107621;28;20050;-44
2023/11/09 14:39:54;;;;;;;3.38;2.70;;;;;;;;;;5107752;28;20135;-43
2023/11/09 14:42:24;;;;;;;3.17;2.60;;;;;;;;;;5107409;28;20248;-44
2023/11/09 14:44:53;;;;;;;5.95;2.58;;;;;;;;;;5107906;28;20054;-42
2023/11/09 14:47:24;;;;;;;5.72;2.75;;;;;;;;;;5107261;28;20087;-43
2023/11/09 14:49:53;;;;;;;3.22;2.05;;;;;;;;;;5107414;28;20068;-42
2023/11/09 14:55:05;;;;;;;9.57;3.35;;;;;;;;;;5107763;28;20027;-48
2023/11/09 14:57:32;;;;;;;5.63;2.90;;;;;;;;;;5107220;28;20070;-43
2023/11/09 14:59:58;;;;;;;5.72;2.78;;;;;;;;;;5107334;28;20195;-43
2023/11/09 15:02:26;;;;;;;5.32;2.80;;;;;;;;;;5107282;28;20024;-44